UAL2038 KSLC-KLAS
Flight info
| Callsign | UAL2038 |
|---|---|
| Flight time | 1h 2m |
| Altitude | 32000 |
| Route | ARCHZ1 MLF STEWW CHOWW3 |
| Aircraft | B738/M-SDE2E3FGHIRWXY/LB1 |
Departure
| Time | 2026-05-04 04:02 |
|---|---|
| Airport | Salt Lake City International Airport (KSLC) |
Arrival
| Time | 2026-05-04 05:04 |
|---|---|
| Airport | Harry Reid International Airport (KLAS) |
| Time | Latitude | Longitude | Altitude | Speed | Heading |
|---|---|---|---|---|---|
| 2026-05-04 03:18 | 40.78599 | -111.98951 | 4232 ft | 0 kts | 175° |
| 2026-05-04 03:34 | 40.78601 | -111.98951 | 4232 ft | 0 kts | 175° |
| 2026-05-04 03:34 | 40.78605 | -111.98952 | 4232 ft | 1 kts | 175° |
| 2026-05-04 03:34 | 40.78610 | -111.98952 | 4230 ft | 1 kts | 175° |
| 2026-05-04 03:34 | 40.78616 | -111.98953 | 4230 ft | 1 kts | 175° |
| 2026-05-04 03:35 | 40.78622 | -111.98954 | 4230 ft | 1 kts | 175° |
| 2026-05-04 03:35 | 40.78629 | -111.98954 | 4231 ft | 1 kts | 175° |
| 2026-05-04 03:35 | 40.78631 | -111.98955 | 4230 ft | 0 kts | 175° |
| 2026-05-04 03:35 | 40.78629 | -111.98954 | 4231 ft | 0 kts | 175° |
| 2026-05-04 03:36 | 40.78628 | -111.98954 | 4231 ft | 1 kts | 175° |
| 2026-05-04 03:36 | 40.78625 | -111.98954 | 4230 ft | 0 kts | 175° |
| 2026-05-04 03:36 | 40.78623 | -111.98947 | 4230 ft | 3 kts | 117° |
| 2026-05-04 03:36 | 40.78649 | -111.98928 | 4230 ft | 5 kts | 17° |
| 2026-05-04 03:37 | 40.78671 | -111.98906 | 4232 ft | 1 kts | 64° |
| 2026-05-04 03:37 | 40.78671 | -111.98905 | 4232 ft | 0 kts | 68° |
| 2026-05-04 03:37 | 40.78677 | -111.98890 | 4232 ft | 0 kts | 74° |
| 2026-05-04 03:48 | 40.78685 | -111.98790 | 4232 ft | 20 kts | 84° |
| 2026-05-04 03:48 | 40.78697 | -111.98617 | 4232 ft | 19 kts | 84° |
| 2026-05-04 03:49 | 40.78709 | -111.98448 | 4233 ft | 18 kts | 83° |
| 2026-05-04 03:49 | 40.78720 | -111.98285 | 4233 ft | 17 kts | 84° |
| 2026-05-04 03:49 | 40.78729 | -111.98133 | 4232 ft | 16 kts | 84° |
| 2026-05-04 03:49 | 40.78740 | -111.97993 | 4234 ft | 15 kts | 84° |
| 2026-05-04 03:50 | 40.78747 | -111.97892 | 4235 ft | 11 kts | 85° |
| 2026-05-04 03:50 | 40.78748 | -111.97867 | 4235 ft | 0 kts | 85° |
| 2026-05-04 03:55 | 40.78750 | -111.97866 | 4235 ft | 1 kts | 70° |
| 2026-05-04 03:55 | 40.78752 | -111.97882 | 4235 ft | 0 kts | 217° |
| 2026-05-04 03:55 | 40.78740 | -111.98001 | 4233 ft | 28 kts | 268° |
| 2026-05-04 03:55 | 40.78771 | -111.98342 | 4233 ft | 41 kts | 269° |
| 2026-05-04 03:56 | 40.78762 | -111.98651 | 4231 ft | 29 kts | 266° |
| 2026-05-04 03:56 | 40.78743 | -111.98972 | 4233 ft | 41 kts | 266° |
| 2026-05-04 03:56 | 40.78724 | -111.99226 | 4234 ft | 12 kts | 267° |
| 2026-05-04 03:56 | 40.78718 | -111.99323 | 4235 ft | 9 kts | 243° |
| 2026-05-04 03:57 | 40.78650 | -111.99362 | 4234 ft | 12 kts | 182° |
| 2026-05-04 03:57 | 40.78507 | -111.99351 | 4233 ft | 26 kts | 175° |
| 2026-05-04 03:57 | 40.78394 | -111.99339 | 4231 ft | 13 kts | 175° |
| 2026-05-04 03:57 | 40.78300 | -111.99329 | 4230 ft | 12 kts | 175° |
| 2026-05-04 03:58 | 40.78134 | -111.99307 | 4231 ft | 11 kts | 172° |
| 2026-05-04 03:58 | 40.78050 | -111.99282 | 4244 ft | 13 kts | 168° |
| 2026-05-04 03:58 | 40.77951 | -111.99266 | 4251 ft | 17 kts | 171° |
| 2026-05-04 03:59 | 40.77825 | -111.99249 | 4253 ft | 20 kts | 175° |
| 2026-05-04 03:59 | 40.77683 | -111.99225 | 4252 ft | 20 kts | 168° |
| 2026-05-04 03:59 | 40.77573 | -111.99194 | 4253 ft | 11 kts | 174° |
| 2026-05-04 03:59 | 40.77512 | -111.99215 | 4253 ft | 10 kts | 227° |
| 2026-05-04 04:00 | 40.77498 | -111.99302 | 4254 ft | 10 kts | 265° |
| 2026-05-04 04:00 | 40.77509 | -111.99386 | 4253 ft | 9 kts | 288° |
| 2026-05-04 04:00 | 40.77513 | -111.99403 | 4253 ft | 1 kts | 286° |
| 2026-05-04 04:00 | 40.77517 | -111.99436 | 4254 ft | 8 kts | 277° |
| 2026-05-04 04:01 | 40.77533 | -111.99522 | 4254 ft | 8 kts | 307° |
| 2026-05-04 04:01 | 40.77572 | -111.99552 | 4256 ft | 5 kts | 346° |
| 2026-05-04 04:01 | 40.77582 | -111.99555 | 4256 ft | 2 kts | 348° |
| 2026-05-04 04:01 | 40.77613 | -111.99560 | 4260 ft | 17 kts | 353° |
| 2026-05-04 04:02 | 40.78025 | -111.99610 | 4250 ft | 102 kts | 355° |
| 2026-05-04 04:02 | 40.78965 | -111.99722 | 4310 ft | 163 kts | 355° |
| 2026-05-04 04:02 | 40.80220 | -111.99867 | 5030 ft | 149 kts | 355° |
| 2026-05-04 04:02 | 40.81171 | -112.00018 | 6160 ft | 158 kts | 349° |
| 2026-05-04 04:03 | 40.82391 | -112.00713 | 5666 ft | 223 kts | 326° |
| 2026-05-04 04:03 | 40.83412 | -112.02333 | 6029 ft | 237 kts | 293° |
| 2026-05-04 04:03 | 40.83361 | -112.04572 | 5798 ft | 268 kts | 251° |
| 2026-05-04 04:03 | 40.83075 | -112.07047 | 5921 ft | 279 kts | 268° |
| 2026-05-04 04:04 | 40.83045 | -112.09643 | 6086 ft | 285 kts | 271° |
| 2026-05-04 04:04 | 40.83053 | -112.12144 | 6573 ft | 252 kts | 271° |
| 2026-05-04 04:04 | 40.83065 | -112.14283 | 6981 ft | 217 kts | 271° |
| 2026-05-04 04:04 | 40.83084 | -112.16099 | 7455 ft | 178 kts | 271° |
| 2026-05-04 04:05 | 40.83105 | -112.17559 | 7703 ft | 148 kts | 271° |
| 2026-05-04 04:05 | 40.83128 | -112.18936 | 7487 ft | 158 kts | 271° |
| 2026-05-04 04:05 | 40.83152 | -112.20395 | 7876 ft | 156 kts | 271° |
| 2026-05-04 04:05 | 40.83177 | -112.21818 | 8372 ft | 154 kts | 270° |
| 2026-05-04 04:06 | 40.83205 | -112.23213 | 8882 ft | 149 kts | 269° |
| 2026-05-04 04:06 | 40.82924 | -112.24486 | 9277 ft | 145 kts | 249° |
| 2026-05-04 04:06 | 40.82521 | -112.25736 | 9541 ft | 155 kts | 246° |
| 2026-05-04 04:06 | 40.81978 | -112.27030 | 9716 ft | 168 kts | 220° |
| 2026-05-04 04:07 | 40.80995 | -112.27882 | 9959 ft | 176 kts | 194° |
| 2026-05-04 04:07 | 40.79747 | -112.28183 | 10122 ft | 191 kts | 187° |
| 2026-05-04 04:07 | 40.78368 | -112.28278 | 10288 ft | 205 kts | 181° |
| 2026-05-04 04:07 | 40.76911 | -112.28308 | 10471 ft | 217 kts | 181° |
| 2026-05-04 04:08 | 40.75364 | -112.28334 | 10636 ft | 227 kts | 181° |
| 2026-05-04 04:08 | 40.73760 | -112.28259 | 10772 ft | 235 kts | 174° |
| 2026-05-04 04:08 | 40.72073 | -112.28075 | 10876 ft | 257 kts | 180° |
| 2026-05-04 04:08 | 40.70182 | -112.28259 | 11009 ft | 287 kts | 189° |
| 2026-05-04 04:09 | 40.68122 | -112.28772 | 11153 ft | 315 kts | 191° |
| 2026-05-04 04:09 | 40.65892 | -112.29313 | 11299 ft | 340 kts | 189° |
| 2026-05-04 04:09 | 40.63497 | -112.29777 | 11434 ft | 350 kts | 188° |
| 2026-05-04 04:09 | 40.61069 | -112.30230 | 11698 ft | 352 kts | 188° |
| 2026-05-04 04:10 | 40.58605 | -112.30733 | 12056 ft | 365 kts | 189° |
| 2026-05-04 04:10 | 40.56061 | -112.31345 | 12416 ft | 381 kts | 195° |
| 2026-05-04 04:10 | 40.53489 | -112.32369 | 12826 ft | 393 kts | 197° |
| 2026-05-04 04:10 | 40.50839 | -112.33482 | 13282 ft | 400 kts | 198° |
| 2026-05-04 04:11 | 40.48174 | -112.34586 | 14124 ft | 404 kts | 197° |
| 2026-05-04 04:11 | 40.45492 | -112.35673 | 15008 ft | 410 kts | 197° |
| 2026-05-04 04:11 | 40.42710 | -112.36801 | 15856 ft | 417 kts | 198° |
| 2026-05-04 04:11 | 40.39918 | -112.37945 | 16697 ft | 424 kts | 198° |
| 2026-05-04 04:12 | 40.37084 | -112.39106 | 17560 ft | 430 kts | 198° |
| 2026-05-04 04:12 | 40.34201 | -112.40280 | 18384 ft | 435 kts | 198° |
| 2026-05-04 04:12 | 40.31304 | -112.41456 | 19139 ft | 439 kts | 198° |
| 2026-05-04 04:12 | 40.28370 | -112.42649 | 19917 ft | 444 kts | 198° |
| 2026-05-04 04:13 | 40.25432 | -112.43845 | 20697 ft | 448 kts | 198° |
| 2026-05-04 04:13 | 40.22433 | -112.45063 | 21495 ft | 453 kts | 198° |
| 2026-05-04 04:13 | 40.19368 | -112.46315 | 22293 ft | 457 kts | 199° |
| 2026-05-04 04:13 | 40.16495 | -112.47992 | 23045 ft | 460 kts | 209° |
| 2026-05-04 04:14 | 40.13670 | -112.49985 | 23788 ft | 462 kts | 209° |
| 2026-05-04 04:14 | 40.10869 | -112.51975 | 24781 ft | 458 kts | 209° |
| 2026-05-04 04:14 | 40.08066 | -112.53949 | 25774 ft | 453 kts | 208° |
| 2026-05-04 04:14 | 40.05296 | -112.55886 | 26734 ft | 449 kts | 208° |
| 2026-05-04 04:15 | 40.02553 | -112.57810 | 27704 ft | 445 kts | 208° |
| 2026-05-04 04:15 | 39.99840 | -112.59719 | 28631 ft | 441 kts | 208° |
| 2026-05-04 04:15 | 39.97135 | -112.61617 | 29545 ft | 438 kts | 208° |
| 2026-05-04 04:15 | 39.94484 | -112.63472 | 30328 ft | 434 kts | 208° |
| 2026-05-04 04:16 | 39.91824 | -112.65332 | 30985 ft | 433 kts | 208° |
| 2026-05-04 04:16 | 39.89201 | -112.67166 | 31703 ft | 430 kts | 208° |
| 2026-05-04 04:16 | 39.86562 | -112.69010 | 32300 ft | 430 kts | 209° |
| 2026-05-04 04:16 | 39.83918 | -112.70856 | 32688 ft | 435 kts | 209° |
| 2026-05-04 04:17 | 39.82139 | -112.72097 | 32966 ft | 437 kts | 209° |
| 2026-05-04 04:17 | 39.79444 | -112.73974 | 33430 ft | 440 kts | 209° |
| 2026-05-04 04:17 | 39.76718 | -112.75873 | 33680 ft | 448 kts | 209° |
| 2026-05-04 04:17 | 39.73934 | -112.77812 | 33678 ft | 461 kts | 209° |
| 2026-05-04 04:18 | 39.68052 | -112.81450 | 33676 ft | 471 kts | 199° |
| 2026-05-04 04:18 | 39.61614 | -112.82887 | 33689 ft | 469 kts | 189° |
| 2026-05-04 04:19 | 39.55125 | -112.83844 | 33704 ft | 469 kts | 189° |
| 2026-05-04 04:19 | 39.48651 | -112.84818 | 33706 ft | 469 kts | 189° |
| 2026-05-04 04:20 | 39.42155 | -112.85780 | 33705 ft | 468 kts | 190° |
| 2026-05-04 04:20 | 39.35747 | -112.86735 | 33478 ft | 464 kts | 190° |
| 2026-05-04 04:21 | 39.32580 | -112.87202 | 33184 ft | 452 kts | 190° |
| 2026-05-04 04:21 | 39.29449 | -112.87663 | 32887 ft | 440 kts | 190° |
| 2026-05-04 04:21 | 39.26458 | -112.88109 | 32613 ft | 435 kts | 190° |
| 2026-05-04 04:21 | 39.23464 | -112.88555 | 32326 ft | 431 kts | 190° |
| 2026-05-04 04:22 | 39.20496 | -112.88993 | 32057 ft | 427 kts | 190° |
| 2026-05-04 04:22 | 39.17558 | -112.89427 | 31851 ft | 424 kts | 189° |
| 2026-05-04 04:22 | 39.11668 | -112.90298 | 31866 ft | 426 kts | 189° |
| 2026-05-04 04:23 | 39.05764 | -112.91166 | 31872 ft | 427 kts | 189° |
| 2026-05-04 04:23 | 38.99880 | -112.92032 | 31860 ft | 429 kts | 190° |
| 2026-05-04 04:24 | 38.93946 | -112.92903 | 31859 ft | 429 kts | 190° |
| 2026-05-04 04:24 | 38.88045 | -112.93768 | 31868 ft | 429 kts | 190° |
| 2026-05-04 04:25 | 38.82113 | -112.94637 | 31881 ft | 429 kts | 190° |
| 2026-05-04 04:25 | 38.76190 | -112.95504 | 31885 ft | 429 kts | 191° |
| 2026-05-04 04:26 | 38.73223 | -112.95948 | 31767 ft | 431 kts | 191° |
| 2026-05-04 04:26 | 38.70217 | -112.96311 | 31733 ft | 431 kts | 189° |
| 2026-05-04 04:26 | 38.67288 | -112.95594 | 31555 ft | 461 kts | 129° |
| 2026-05-04 04:26 | 38.65324 | -112.92810 | 33935 ft | 363 kts | 161° |
| 2026-05-04 04:27 | 38.63215 | -112.91726 | 35073 ft | 313 kts | 191° |
| 2026-05-04 04:27 | 38.61151 | -112.92340 | 34655 ft | 307 kts | 212° |
| 2026-05-04 04:27 | 38.59208 | -112.93629 | 34033 ft | 334 kts | 220° |
| 2026-05-04 04:27 | 38.57316 | -112.95605 | 32658 ft | 374 kts | 227° |
| 2026-05-04 04:28 | 38.55149 | -112.97717 | 32364 ft | 400 kts | 213° |
| 2026-05-04 04:28 | 38.52431 | -112.98408 | 32199 ft | 449 kts | 147° |
| 2026-05-04 04:28 | 38.49869 | -112.96821 | 33815 ft | 352 kts | 202° |
| 2026-05-04 04:28 | 38.47790 | -112.97806 | 34159 ft | 321 kts | 208° |
| 2026-05-04 04:29 | 38.45420 | -112.98639 | 32933 ft | 379 kts | 197° |
| 2026-05-04 04:29 | 38.42686 | -112.99078 | 31884 ft | 413 kts | 192° |
| 2026-05-04 04:29 | 38.36947 | -113.00403 | 31611 ft | 421 kts | 198° |
| 2026-05-04 04:30 | 38.34146 | -113.01141 | 31846 ft | 411 kts | 199° |
| 2026-05-04 04:30 | 38.31341 | -113.02016 | 31038 ft | 429 kts | 190° |
| 2026-05-04 04:30 | 38.28415 | -113.02533 | 31402 ft | 418 kts | 204° |
| 2026-05-04 04:30 | 38.25995 | -113.04519 | 31007 ft | 425 kts | 221° |
| 2026-05-04 04:31 | 38.23593 | -113.06919 | 30597 ft | 446 kts | 213° |
| 2026-05-04 04:31 | 38.20801 | -113.08545 | 31673 ft | 438 kts | 205° |
| 2026-05-04 04:31 | 38.17961 | -113.09995 | 31992 ft | 446 kts | 206° |
| 2026-05-04 04:31 | 38.15042 | -113.11522 | 31983 ft | 460 kts | 208° |
| 2026-05-04 04:32 | 38.09180 | -113.14665 | 31949 ft | 456 kts | 209° |
| 2026-05-04 04:32 | 38.03344 | -113.17723 | 31924 ft | 438 kts | 208° |
| 2026-05-04 04:33 | 37.97755 | -113.20280 | 31936 ft | 426 kts | 206° |
| 2026-05-04 04:33 | 37.92209 | -113.22815 | 32023 ft | 421 kts | 207° |
| 2026-05-04 04:34 | 37.86697 | -113.25360 | 32039 ft | 420 kts | 207° |
| 2026-05-04 04:34 | 37.81225 | -113.27848 | 32050 ft | 415 kts | 208° |
| 2026-05-04 04:35 | 37.75790 | -113.30345 | 32057 ft | 415 kts | 208° |
| 2026-05-04 04:35 | 37.70386 | -113.32803 | 32051 ft | 415 kts | 208° |
| 2026-05-04 04:36 | 37.64956 | -113.35281 | 32033 ft | 415 kts | 208° |
| 2026-05-04 04:36 | 37.59531 | -113.37745 | 32006 ft | 413 kts | 208° |
| 2026-05-04 04:37 | 37.48702 | -113.42661 | 31950 ft | 413 kts | 208° |
| 2026-05-04 04:38 | 37.43288 | -113.45109 | 31929 ft | 412 kts | 208° |
| 2026-05-04 04:38 | 37.37888 | -113.47555 | 31922 ft | 413 kts | 208° |
| 2026-05-04 04:39 | 37.32475 | -113.49996 | 31902 ft | 413 kts | 208° |
| 2026-05-04 04:39 | 37.27080 | -113.52428 | 31904 ft | 413 kts | 208° |
| 2026-05-04 04:40 | 37.21738 | -113.55007 | 31958 ft | 407 kts | 214° |
| 2026-05-04 04:40 | 37.16721 | -113.58245 | 31967 ft | 407 kts | 214° |
| 2026-05-04 04:41 | 37.11514 | -113.61166 | 31977 ft | 411 kts | 213° |
| 2026-05-04 04:41 | 37.06361 | -113.64224 | 31979 ft | 410 kts | 214° |
| 2026-05-04 04:42 | 37.01180 | -113.67230 | 32002 ft | 410 kts | 213° |
| 2026-05-04 04:42 | 36.96003 | -113.70247 | 32036 ft | 409 kts | 213° |
| 2026-05-04 04:43 | 36.90863 | -113.73246 | 32012 ft | 409 kts | 213° |
| 2026-05-04 04:43 | 36.85718 | -113.76253 | 31983 ft | 410 kts | 213° |
| 2026-05-04 04:44 | 36.80490 | -113.79296 | 31952 ft | 410 kts | 213° |
| 2026-05-04 04:44 | 36.75370 | -113.82275 | 31936 ft | 410 kts | 213° |
| 2026-05-04 04:45 | 36.70192 | -113.85282 | 31937 ft | 409 kts | 213° |
| 2026-05-04 04:47 | 36.54412 | -113.99063 | 31909 ft | 390 kts | 237° |
| 2026-05-04 04:47 | 36.51087 | -114.04399 | 31876 ft | 389 kts | 237° |
| 2026-05-04 04:48 | 36.47786 | -114.09723 | 31881 ft | 389 kts | 237° |
| 2026-05-04 04:49 | 36.41644 | -114.19588 | 30801 ft | 346 kts | 237° |
| 2026-05-04 04:49 | 36.40172 | -114.21945 | 30147 ft | 346 kts | 237° |
| 2026-05-04 04:49 | 36.38711 | -114.24268 | 29409 ft | 335 kts | 236° |
| 2026-05-04 04:49 | 36.37290 | -114.26521 | 28427 ft | 327 kts | 237° |
| 2026-05-04 04:50 | 36.35912 | -114.28709 | 27630 ft | 320 kts | 235° |
| 2026-05-04 04:50 | 36.34517 | -114.30835 | 26858 ft | 311 kts | 235° |
| 2026-05-04 04:50 | 36.33179 | -114.32911 | 26124 ft | 304 kts | 236° |
| 2026-05-04 04:50 | 36.31905 | -114.34926 | 25423 ft | 298 kts | 236° |
| 2026-05-04 04:51 | 36.30639 | -114.36921 | 24367 ft | 288 kts | 235° |
| 2026-05-04 04:51 | 36.29416 | -114.38832 | 23321 ft | 280 kts | 234° |
| 2026-05-04 04:51 | 36.28217 | -114.40703 | 22123 ft | 273 kts | 233° |
| 2026-05-04 04:51 | 36.27051 | -114.42528 | 20959 ft | 270 kts | 233° |
| 2026-05-04 04:52 | 36.25867 | -114.44383 | 19393 ft | 280 kts | 231° |
| 2026-05-04 04:52 | 36.24526 | -114.46181 | 17902 ft | 290 kts | 212° |
| 2026-05-04 04:52 | 36.22666 | -114.47198 | 16295 ft | 297 kts | 197° |
| 2026-05-04 04:52 | 36.20630 | -114.47815 | 14727 ft | 302 kts | 192° |
| 2026-05-04 04:53 | 36.18571 | -114.48322 | 13295 ft | 303 kts | 191° |
| 2026-05-04 04:53 | 36.16540 | -114.48803 | 11818 ft | 298 kts | 191° |
| 2026-05-04 04:53 | 36.14515 | -114.49270 | 10419 ft | 295 kts | 191° |
| 2026-05-04 04:53 | 36.12547 | -114.49705 | 9867 ft | 281 kts | 191° |
| 2026-05-04 04:54 | 36.10670 | -114.50104 | 9863 ft | 265 kts | 191° |
| 2026-05-04 04:54 | 36.08944 | -114.50640 | 9873 ft | 249 kts | 209° |
| 2026-05-04 04:54 | 36.07685 | -114.52001 | 9888 ft | 239 kts | 236° |
| 2026-05-04 04:54 | 36.07023 | -114.53840 | 9869 ft | 231 kts | 247° |
| 2026-05-04 04:55 | 36.06569 | -114.55708 | 9868 ft | 222 kts | 256° |
| 2026-05-04 04:55 | 36.06551 | -114.57586 | 9880 ft | 216 kts | 267° |
| 2026-05-04 04:55 | 36.06685 | -114.59417 | 9878 ft | 209 kts | 271° |
| 2026-05-04 04:55 | 36.06845 | -114.61208 | 9940 ft | 225 kts | 271° |
| 2026-05-04 04:56 | 36.07004 | -114.63296 | 9956 ft | 260 kts | 270° |
| 2026-05-04 04:56 | 36.07137 | -114.65541 | 9943 ft | 255 kts | 270° |
| 2026-05-04 04:56 | 36.07252 | -114.67700 | 9945 ft | 252 kts | 269° |
| 2026-05-04 04:56 | 36.07364 | -114.69806 | 9942 ft | 235 kts | 268° |
| 2026-05-04 04:57 | 36.07499 | -114.71712 | 9925 ft | 208 kts | 269° |
| 2026-05-04 04:57 | 36.07632 | -114.73454 | 9934 ft | 206 kts | 269° |
| 2026-05-04 04:57 | 36.07762 | -114.75231 | 9944 ft | 204 kts | 269° |
| 2026-05-04 04:57 | 36.07880 | -114.76972 | 9954 ft | 204 kts | 269° |
| 2026-05-04 04:58 | 36.07993 | -114.78736 | 9943 ft | 205 kts | 269° |
| 2026-05-04 04:58 | 36.08138 | -114.80452 | 9796 ft | 197 kts | 269° |
| 2026-05-04 04:58 | 36.08197 | -114.82105 | 9517 ft | 196 kts | 265° |
| 2026-05-04 04:58 | 36.08227 | -114.83820 | 9146 ft | 201 kts | 268° |
| 2026-05-04 04:59 | 36.08318 | -114.85538 | 8807 ft | 202 kts | 266° |
| 2026-05-04 04:59 | 36.08360 | -114.87316 | 8265 ft | 210 kts | 259° |
| 2026-05-04 04:59 | 36.08202 | -114.89169 | 7807 ft | 218 kts | 259° |
| 2026-05-04 04:59 | 36.08063 | -114.90939 | 7209 ft | 196 kts | 256° |
| 2026-05-04 05:00 | 36.07871 | -114.92533 | 6622 ft | 181 kts | 257° |
| 2026-05-04 05:00 | 36.07787 | -114.94076 | 5887 ft | 182 kts | 262° |
| 2026-05-04 05:00 | 36.07773 | -114.97137 | 5022 ft | 165 kts | 261° |
| 2026-05-04 05:01 | 36.07732 | -114.98521 | 4610 ft | 157 kts | 260° |
| 2026-05-04 05:01 | 36.07718 | -114.99837 | 4262 ft | 154 kts | 266° |
| 2026-05-04 05:01 | 36.08132 | -115.01229 | 3703 ft | 183 kts | 255° |
| 2026-05-04 05:01 | 36.08055 | -115.02128 | 3847 ft | 147 kts | 248° |
| 2026-05-04 05:02 | 36.07128 | -115.03655 | 3468 ft | 173 kts | 244° |
| 2026-05-04 05:02 | 36.07137 | -115.04891 | 3326 ft | 142 kts | 282° |
| 2026-05-04 05:02 | 36.07310 | -115.05702 | 3084 ft | 153 kts | 277° |
| 2026-05-04 05:02 | 36.07410 | -115.06907 | 3015 ft | 128 kts | 269° |
| 2026-05-04 05:03 | 36.07423 | -115.08081 | 2692 ft | 143 kts | 268° |
| 2026-05-04 05:03 | 36.07440 | -115.09216 | 2506 ft | 124 kts | 263° |
| 2026-05-04 05:04 | 36.07389 | -115.12225 | 2244 ft | 113 kts | 259° |
| 2026-05-04 05:04 | 36.07372 | -115.13098 | 2133 ft | 93 kts | 266° |
| 2026-05-04 05:04 | 36.07360 | -115.13668 | 2119 ft | 41 kts | 267° |
| 2026-05-04 05:06 | 36.07449 | -115.14542 | 2126 ft | 0 kts | 298° |
| 2026-05-04 05:06 | 36.07502 | -115.14622 | 2129 ft | 40 kts | 322° |
| 2026-05-04 05:06 | 36.07742 | -115.14671 | 2124 ft | 23 kts | 331° |
| 2026-05-04 05:07 | 36.07768 | -115.14731 | 2123 ft | 1 kts | 288° |
| 2026-05-04 05:07 | 36.07771 | -115.14740 | 2123 ft | 1 kts | 292° |
| 2026-05-04 05:07 | 36.07821 | -115.14809 | 2125 ft | 17 kts | 329° |
| 2026-05-04 05:09 | 36.08414 | -115.15262 | 2117 ft | 4 kts | 160° |
| 2026-05-04 05:09 | 36.08372 | -115.15238 | 2117 ft | 4 kts | 120° |
| 2026-05-04 05:10 | 36.08365 | -115.15219 | 2117 ft | 0 kts | 112° |